sensor_id;sensor_type;location;lat;lon;timestamp;P1;durP1;ratioP1;P2;durP2;ratioP2
67429;SDS011;54298;52.076;5.264;2022-11-15T00:00:16;41.2;;;26.0;;
67429;SDS011;54298;52.076;5.264;2022-11-15T00:03:29;45.0;;;29.5;;
67429;SDS011;54298;52.076;5.264;2022-11-15T00:05:05;43.9;;;28.0;;
67429;SDS011;54298;52.076;5.264;2022-11-15T00:06:42;44.8;;;28.7;;
67429;SDS011;54298;52.076;5.264;2022-11-15T00:08:18;50.3;;;31.4;;
67429;SDS011;54298;52.076;5.264;2022-11-15T00:11:31;45.1;;;29.4;;
67429;SDS011;54298;52.076;5.264;2022-11-15T00:13:08;48.1;;;30.8;;
67429;SDS011;54298;52.076;5.264;2022-11-15T00:14:46;52.5;;;32.1;;
67429;SDS011;54298;52.076;5.264;2022-11-15T00:17:59;59.0;;;32.1;;
67429;SDS011;54298;52.076;5.264;2022-11-15T00:19:35;56.3;;;31.9;;
67429;SDS011;54298;52.076;5.264;2022-11-15T00:21:12;55.3;;;33.5;;
67429;SDS011;54298;52.076;5.264;2022-11-15T00:22:52;54.5;;;29.2;;
67429;SDS011;54298;52.076;5.264;2022-11-15T00:26:04;55.4;;;29.8;;
67429;SDS011;54298;52.076;5.264;2022-11-15T00:27:41;63.3;;;34.6;;
67429;SDS011;54298;52.076;5.264;2022-11-15T00:29:17;60.7;;;34.71;;
67429;SDS011;54298;52.076;5.264;2022-11-15T00:32:35;60.7;;;34.71;;
67429;SDS011;54298;52.076;5.264;2022-11-15T00:34:11;61.4;;;34.4;;
67429;SDS011;54298;52.076;5.264;2022-11-15T00:35:47;61.4;;;35.1;;
67429;SDS011;54298;52.076;5.264;2022-11-15T00:38:59;56.9;;;33.21;;
67429;SDS011;54298;52.076;5.264;2022-11-15T00:40:35;58.8;;;34.4;;
67429;SDS011;54298;52.076;5.264;2022-11-15T00:42:11;58.1;;;35.1;;
67429;SDS011;54298;52.076;5.264;2022-11-15T00:43:47;59.1;;;33.21;;
67429;SDS011;54298;52.076;5.264;2022-11-15T00:47:01;57.6;;;33.71;;
67429;SDS011;54298;52.076;5.264;2022-11-15T00:48:37;55.9;;;33.71;;
67429;SDS011;54298;52.076;5.264;2022-11-15T00:50:13;59.1;;;30.6;;
67429;SDS011;54298;52.076;5.264;2022-11-15T00:53:27;56.2;;;33.5;;
67429;SDS011;54298;52.076;5.264;2022-11-15T00:55:03;54.6;;;31.6;;
67429;SDS011;54298;52.076;5.264;2022-11-15T00:56:40;58.0;;;32.8;;
67429;SDS011;54298;52.076;5.264;2022-11-15T00:59:52;58.8;;;31.3;;
67429;SDS011;54298;52.076;5.264;2022-11-15T01:01:28;61.8;;;35.5;;
67429;SDS011;54298;52.076;5.264;2022-11-15T01:03:05;58.4;;;36.81;;
67429;SDS011;54298;52.076;5.264;2022-11-15T01:06:17;56.7;;;34.6;;
67429;SDS011;54298;52.076;5.264;2022-11-15T01:07:53;54.6;;;32.1;;
67429;SDS011;54298;52.076;5.264;2022-11-15T01:09:31;56.7;;;32.4;;
67429;SDS011;54298;52.076;5.264;2022-11-15T01:11:08;60.5;;;33.9;;
67429;SDS011;54298;52.076;5.264;2022-11-15T01:14:23;60.5;;;33.9;;
67429;SDS011;54298;52.076;5.264;2022-11-15T01:15:59;57.7;;;33.1;;
67429;SDS011;54298;52.076;5.264;2022-11-15T01:17:41;55.3;;;34.0;;
67429;SDS011;54298;52.076;5.264;2022-11-15T01:20:53;57.6;;;33.0;;
67429;SDS011;54298;52.076;5.264;2022-11-15T01:22:30;54.3;;;31.5;;
67429;SDS011;54298;52.076;5.264;2022-11-15T01:24:06;49.8;;;32.0;;
67429;SDS011;54298;52.076;5.264;2022-11-15T01:25:44;55.3;;;33.9;;
67429;SDS011;54298;52.076;5.264;2022-11-15T01:28:56;57.9;;;34.81;;
67429;SDS011;54298;52.076;5.264;2022-11-15T01:30:32;58.5;;;35.31;;
67429;SDS011;54298;52.076;5.264;2022-11-15T01:32:08;55.4;;;34.1;;
67429;SDS011;54298;52.076;5.264;2022-11-15T01:35:23;50.8;;;31.4;;
67429;SDS011;54298;52.076;5.264;2022-11-15T01:36:59;51.6;;;31.6;;
67429;SDS011;54298;52.076;5.264;2022-11-15T01:38:36;53.7;;;35.6;;
67429;SDS011;54298;52.076;5.264;2022-11-15T01:41:50;55.0;;;31.9;;
67429;SDS011;54298;52.076;5.264;2022-11-15T01:43:27;53.6;;;33.6;;
67429;SDS011;54298;52.076;5.264;2022-11-15T01:46:51;51.0;;;30.6;;
67429;SDS011;54298;52.076;5.264;2022-11-15T01:50:09;56.4;;;33.9;;
67429;SDS011;54298;52.076;5.264;2022-11-15T01:51:50;57.0;;;34.6;;
67429;SDS011;54298;52.076;5.264;2022-11-15T01:53:27;58.2;;;33.0;;
67429;SDS011;54298;52.076;5.264;2022-11-15T01:55:07;65.5;;;36.4;;
67429;SDS011;54298;52.076;5.264;2022-11-15T01:58:30;59.0;;;36.0;;
67429;SDS011;54298;52.076;5.264;2022-11-15T02:00:07;57.0;;;33.9;;
67429;SDS011;54298;52.076;5.264;2022-11-15T02:01:45;56.7;;;32.8;;
67429;SDS011;54298;52.076;5.264;2022-11-15T02:03:23;56.8;;;36.1;;
67429;SDS011;54298;52.076;5.264;2022-11-15T02:06:46;57.6;;;34.31;;
67429;SDS011;54298;52.076;5.264;2022-11-15T02:08:24;56.9;;;33.1;;
67429;SDS011;54298;52.076;5.264;2022-11-15T02:10:02;60.8;;;32.6;;
67429;SDS011;54298;52.076;5.264;2022-11-15T02:11:45;51.4;;;31.8;;
67429;SDS011;54298;52.076;5.264;2022-11-15T02:15:00;60.8;;;35.9;;
67429;SDS011;54298;52.076;5.264;2022-11-15T02:16:41;49.5;;;33.1;;
67429;SDS011;54298;52.076;5.264;2022-11-15T02:18:34;56.2;;;32.21;;
67429;SDS011;54298;52.076;5.264;2022-11-15T02:20:21;55.6;;;33.1;;
67429;SDS011;54298;52.076;5.264;2022-11-15T02:22:35;51.7;;;32.0;;
67429;SDS011;54298;52.076;5.264;2022-11-15T02:24:27;51.4;;;33.21;;
67429;SDS011;54298;52.076;5.264;2022-11-15T02:26:42;52.3;;;31.0;;
67429;SDS011;54298;52.076;5.264;2022-11-15T02:28:44;48.3;;;30.0;;
67429;SDS011;54298;52.076;5.264;2022-11-15T02:30:35;46.3;;;31.2;;
67429;SDS011;54298;52.076;5.264;2022-11-15T02:34:02;54.0;;;30.5;;
67429;SDS011;54298;52.076;5.264;2022-11-15T02:35:48;48.3;;;30.9;;
67429;SDS011;54298;52.076;5.264;2022-11-15T02:37:37;45.6;;;29.9;;
67429;SDS011;54298;52.076;5.264;2022-11-15T02:39:22;53.4;;;30.7;;
67429;SDS011;54298;52.076;5.264;2022-11-15T02:41:08;45.8;;;29.2;;
67429;SDS011;54298;52.076;5.264;2022-11-15T02:45:50;45.3;;;28.5;;
67429;SDS011;54298;52.076;5.264;2022-11-15T02:47:32;50.7;;;31.3;;
67429;SDS011;54298;52.076;5.264;2022-11-15T02:49:17;43.0;;;28.7;;
67429;SDS011;54298;52.076;5.264;2022-11-15T02:52:32;44.4;;;29.2;;
67429;SDS011;54298;52.076;5.264;2022-11-15T02:54:10;46.8;;;29.7;;
67429;SDS011;54298;52.076;5.264;2022-11-15T02:55:50;44.2;;;28.1;;
67429;SDS011;54298;52.076;5.264;2022-11-15T02:59:23;50.5;;;30.2;;
67429;SDS011;54298;52.076;5.264;2022-11-15T03:01:33;47.3;;;28.7;;
67429;SDS011;54298;52.076;5.264;2022-11-15T03:03:24;42.4;;;27.0;;
67429;SDS011;54298;52.076;5.264;2022-11-15T03:05:18;44.0;;;29.9;;
67429;SDS011;54298;52.076;5.264;2022-11-15T03:07:02;44.7;;;29.6;;
67429;SDS011;54298;52.076;5.264;2022-11-15T03:08:50;44.2;;;28.7;;
67429;SDS011;54298;52.076;5.264;2022-11-15T03:10:36;43.1;;;30.4;;
67429;SDS011;54298;52.076;5.264;2022-11-15T03:12:23;42.5;;;28.8;;
67429;SDS011;54298;52.076;5.264;2022-11-15T03:15:56;45.8;;;26.8;;
67429;SDS011;54298;52.076;5.264;2022-11-15T03:17:42;42.7;;;27.0;;
67429;SDS011;54298;52.076;5.264;2022-11-15T03:19:27;43.3;;;27.1;;
67429;SDS011;54298;52.076;5.264;2022-11-15T03:21:11;40.31;;;25.8;;
67429;SDS011;54298;52.076;5.264;2022-11-15T03:22:50;42.4;;;26.9;;
67429;SDS011;54298;52.076;5.264;2022-11-15T03:26:12;36.4;;;24.9;;
67429;SDS011;54298;52.076;5.264;2022-11-15T03:27:52;45.3;;;28.3;;
67429;SDS011;54298;52.076;5.264;2022-11-15T03:29:33;43.7;;;28.0;;
67429;SDS011;54298;52.076;5.264;2022-11-15T03:31:47;37.31;;;24.7;;
67429;SDS011;54298;52.076;5.264;2022-11-15T03:34:00;39.4;;;27.5;;
67429;SDS011;54298;52.076;5.264;2022-11-15T03:35:42;42.5;;;27.8;;
67429;SDS011;54298;52.076;5.264;2022-11-15T03:39:05;38.31;;;25.8;;
67429;SDS011;54298;52.076;5.264;2022-11-15T03:40:45;41.9;;;25.9;;
67429;SDS011;54298;52.076;5.264;2022-11-15T03:42:30;37.9;;;26.9;;
67429;SDS011;54298;52.076;5.264;2022-11-15T03:44:14;37.21;;;24.6;;
67429;SDS011;54298;52.076;5.264;2022-11-15T03:45:59;36.9;;;25.8;;
67429;SDS011;54298;52.076;5.264;2022-11-15T03:49:19;37.81;;;26.9;;
67429;SDS011;54298;52.076;5.264;2022-11-15T03:51:02;37.71;;;25.2;;
67429;SDS011;54298;52.076;5.264;2022-11-15T03:52:40;37.31;;;26.6;;
67429;SDS011;54298;52.076;5.264;2022-11-15T03:54:18;35.21;;;22.8;;
67429;SDS011;54298;52.076;5.264;2022-11-15T03:57:30;39.81;;;26.4;;
67429;SDS011;54298;52.076;5.264;2022-11-15T03:59:07;37.6;;;25.4;;
67429;SDS011;54298;52.076;5.264;2022-11-15T04:00:43;38.5;;;27.2;;
67429;SDS011;54298;52.076;5.264;2022-11-15T04:03:55;38.21;;;23.3;;
67429;SDS011;54298;52.076;5.264;2022-11-15T04:05:31;41.6;;;27.0;;
67429;SDS011;54298;52.076;5.264;2022-11-15T04:07:07;38.0;;;26.8;;
67429;SDS011;54298;52.076;5.264;2022-11-15T04:10:20;34.9;;;24.3;;
67429;SDS011;54298;52.076;5.264;2022-11-15T04:11:56;33.5;;;23.6;;
67429;SDS011;54298;52.076;5.264;2022-11-15T04:13:32;36.9;;;24.8;;
67429;SDS011;54298;52.076;5.264;2022-11-15T04:15:09;32.0;;;24.3;;
67429;SDS011;54298;52.076;5.264;2022-11-15T04:18:24;35.81;;;23.7;;
67429;SDS011;54298;52.076;5.264;2022-11-15T04:24:14;32.0;;;24.5;;
67429;SDS011;54298;52.076;5.264;2022-11-15T04:25:51;34.21;;;24.5;;
67429;SDS011;54298;52.076;5.264;2022-11-15T04:29:38;32.0;;;24.4;;
67429;SDS011;54298;52.076;5.264;2022-11-15T04:31:14;34.4;;;25.6;;
67429;SDS011;54298;52.076;5.264;2022-11-15T04:32:50;33.8;;;22.0;;
67429;SDS011;54298;52.076;5.264;2022-11-15T04:34:27;31.3;;;22.9;;
67429;SDS011;54298;52.076;5.264;2022-11-15T04:37:20;34.81;;;23.5;;
67429;SDS011;54298;52.076;5.264;2022-11-15T04:38:58;32.21;;;22.4;;
67429;SDS011;54298;52.076;5.264;2022-11-15T04:40:34;33.9;;;23.0;;
67429;SDS011;54298;52.076;5.264;2022-11-15T04:43:48;32.4;;;23.3;;
67429;SDS011;54298;52.076;5.264;2022-11-15T04:45:24;32.8;;;23.2;;
67429;SDS011;54298;52.076;5.264;2022-11-15T04:47:01;26.0;;;21.5;;
67429;SDS011;54298;52.076;5.264;2022-11-15T04:48:38;42.0;;;29.1;;
67429;SDS011;54298;52.076;5.264;2022-11-15T04:51:52;26.1;;;20.5;;
67429;SDS011;54298;52.076;5.264;2022-11-15T04:55:05;30.8;;;22.1;;
67429;SDS011;54298;52.076;5.264;2022-11-15T04:58:18;30.7;;;22.3;;
67429;SDS011;54298;52.076;5.264;2022-11-15T04:59:54;31.8;;;21.4;;
67429;SDS011;54298;52.076;5.264;2022-11-15T05:01:30;28.5;;;21.0;;
67429;SDS011;54298;52.076;5.264;2022-11-15T05:05:59;30.4;;;20.11;;
67429;SDS011;54298;52.076;5.264;2022-11-15T05:07:36;29.7;;;20.2;;
67429;SDS011;54298;52.076;5.264;2022-11-15T05:10:49;24.2;;;19.3;;
67429;SDS011;54298;52.076;5.264;2022-11-15T05:12:25;26.7;;;19.91;;
67429;SDS011;54298;52.076;5.264;2022-11-15T05:14:02;32.4;;;22.2;;
67429;SDS011;54298;52.076;5.264;2022-11-15T05:17:14;26.4;;;19.41;;
67429;SDS011;54298;52.076;5.264;2022-11-15T05:18:50;31.2;;;21.6;;
67429;SDS011;54298;52.076;5.264;2022-11-15T05:20:27;27.4;;;21.0;;
67429;SDS011;54298;52.076;5.264;2022-11-15T05:22:03;27.4;;;18.61;;
67429;SDS011;54298;52.076;5.264;2022-11-15T05:25:17;27.9;;;18.61;;
67429;SDS011;54298;52.076;5.264;2022-11-15T05:26:53;28.3;;;20.7;;
67429;SDS011;54298;52.076;5.264;2022-11-15T05:28:29;24.4;;;19.11;;
67429;SDS011;54298;52.076;5.264;2022-11-15T05:31:43;25.7;;;20.2;;
67429;SDS011;54298;52.076;5.264;2022-11-15T05:33:19;25.4;;;19.2;;
67429;SDS011;54298;52.076;5.264;2022-11-15T05:34:56;25.4;;;19.2;;
67429;SDS011;54298;52.076;5.264;2022-11-15T05:38:13;27.6;;;19.11;;
67429;SDS011;54298;52.076;5.264;2022-11-15T05:39:49;28.1;;;21.9;;
67429;SDS011;54298;52.076;5.264;2022-11-15T05:41:26;25.9;;;19.41;;
67429;SDS011;54298;52.076;5.264;2022-11-15T05:43:08;26.8;;;20.0;;
67429;SDS011;54298;52.076;5.264;2022-11-15T05:46:27;28.9;;;20.2;;
67429;SDS011;54298;52.076;5.264;2022-11-15T05:48:04;26.0;;;18.61;;
67429;SDS011;54298;52.076;5.264;2022-11-15T05:49:45;26.4;;;19.0;;
67429;SDS011;54298;52.076;5.264;2022-11-15T05:51:23;24.6;;;18.41;;
67429;SDS011;54298;52.076;5.264;2022-11-15T05:54:37;30.0;;;22.1;;
67429;SDS011;54298;52.076;5.264;2022-11-15T05:56:14;24.6;;;18.61;;
67429;SDS011;54298;52.076;5.264;2022-11-15T05:57:51;36.1;;;23.8;;
67429;SDS011;54298;52.076;5.264;2022-11-15T06:01:06;49.2;;;33.3;;
67429;SDS011;54298;52.076;5.264;2022-11-15T06:02:42;33.21;;;26.0;;
67429;SDS011;54298;52.076;5.264;2022-11-15T06:04:18;35.0;;;24.4;;
67429;SDS011;54298;52.076;5.264;2022-11-15T06:07:32;33.3;;;21.8;;
67429;SDS011;54298;52.076;5.264;2022-11-15T06:09:09;29.7;;;20.2;;
67429;SDS011;54298;52.076;5.264;2022-11-15T06:10:45;29.4;;;19.11;;
67429;SDS011;54298;52.076;5.264;2022-11-15T06:12:21;26.9;;;19.5;;
67429;SDS011;54298;52.076;5.264;2022-11-15T06:15:33;27.0;;;20.41;;
67429;SDS011;54298;52.076;5.264;2022-11-15T06:17:10;29.8;;;19.0;;
67429;SDS011;54298;52.076;5.264;2022-11-15T06:18:47;25.5;;;19.11;;
67429;SDS011;54298;52.076;5.264;2022-11-15T06:21:59;24.2;;;19.7;;
67429;SDS011;54298;52.076;5.264;2022-11-15T06:23:35;29.4;;;20.2;;
67429;SDS011;54298;52.076;5.264;2022-11-15T06:25:11;25.1;;;19.0;;
67429;SDS011;54298;52.076;5.264;2022-11-15T06:28:24;25.7;;;19.8;;
67429;SDS011;54298;52.076;5.264;2022-11-15T06:30:00;29.6;;;21.5;;
67429;SDS011;54298;52.076;5.264;2022-11-15T06:31:36;27.9;;;20.9;;
67429;SDS011;54298;52.076;5.264;2022-11-15T06:33:12;26.7;;;19.8;;
67429;SDS011;54298;52.076;5.264;2022-11-15T06:36:24;26.8;;;19.41;;
67429;SDS011;54298;52.076;5.264;2022-11-15T06:38:02;29.1;;;20.7;;
67429;SDS011;54298;52.076;5.264;2022-11-15T06:39:40;30.5;;;21.8;;
67429;SDS011;54298;52.076;5.264;2022-11-15T06:42:56;27.5;;;20.7;;
67429;SDS011;54298;52.076;5.264;2022-11-15T06:44:34;30.8;;;22.5;;
67429;SDS011;54298;52.076;5.264;2022-11-15T06:46:10;30.1;;;21.6;;
67429;SDS011;54298;52.076;5.264;2022-11-15T06:47:46;31.4;;;23.7;;
67429;SDS011;54298;52.076;5.264;2022-11-15T06:51:00;35.4;;;25.2;;
67429;SDS011;54298;52.076;5.264;2022-11-15T06:52:38;29.3;;;20.7;;
67429;SDS011;54298;52.076;5.264;2022-11-15T06:54:14;31.8;;;23.0;;
67429;SDS011;54298;52.076;5.264;2022-11-15T06:57:28;33.4;;;24.1;;
67429;SDS011;54298;52.076;5.264;2022-11-15T06:59:04;30.1;;;22.1;;
67429;SDS011;54298;52.076;5.264;2022-11-15T07:00:40;30.7;;;23.1;;
67429;SDS011;54298;52.076;5.264;2022-11-15T07:03:54;26.9;;;20.11;;
67429;SDS011;54298;52.076;5.264;2022-11-15T07:05:30;36.81;;;25.9;;
67429;SDS011;54298;52.076;5.264;2022-11-15T07:07:07;27.2;;;20.2;;
67429;SDS011;54298;52.076;5.264;2022-11-15T07:08:43;26.0;;;19.3;;
67429;SDS011;54298;52.076;5.264;2022-11-15T07:11:56;28.4;;;19.61;;
67429;SDS011;54298;52.076;5.264;2022-11-15T07:13:33;30.4;;;22.4;;
67429;SDS011;54298;52.076;5.264;2022-11-15T07:15:11;24.6;;;18.5;;
67429;SDS011;54298;52.076;5.264;2022-11-15T07:18:23;34.6;;;24.2;;
67429;SDS011;54298;52.076;5.264;2022-11-15T07:19:59;29.6;;;19.7;;
67429;SDS011;54298;52.076;5.264;2022-11-15T07:21:35;26.0;;;19.3;;
67429;SDS011;54298;52.076;5.264;2022-11-15T07:24:49;25.7;;;18.7;;
67429;SDS011;54298;52.076;5.264;2022-11-15T07:26:25;26.2;;;18.3;;
67429;SDS011;54298;52.076;5.264;2022-11-15T07:28:01;24.9;;;19.11;;
67429;SDS011;54298;52.076;5.264;2022-11-15T07:29:38;27.4;;;18.3;;
67429;SDS011;54298;52.076;5.264;2022-11-15T07:32:52;32.1;;;21.3;;
67429;SDS011;54298;52.076;5.264;2022-11-15T07:34:30;33.8;;;24.9;;
67429;SDS011;54298;52.076;5.264;2022-11-15T07:36:06;24.7;;;18.8;;
67429;SDS011;54298;52.076;5.264;2022-11-15T07:39:29;41.3;;;26.6;;
67429;SDS011;54298;52.076;5.264;2022-11-15T07:41:05;26.9;;;19.11;;
67429;SDS011;54298;52.076;5.264;2022-11-15T07:42:58;37.5;;;25.1;;
67429;SDS011;54298;52.076;5.264;2022-11-15T07:44:35;29.6;;;20.9;;
67429;SDS011;54298;52.076;5.264;2022-11-15T07:47:47;21.9;;;16.5;;
67429;SDS011;54298;52.076;5.264;2022-11-15T07:49:24;25.6;;;16.7;;
67429;SDS011;54298;52.076;5.264;2022-11-15T07:51:01;22.1;;;16.3;;
67429;SDS011;54298;52.076;5.264;2022-11-15T07:52:38;28.3;;;18.61;;
67429;SDS011;54298;52.076;5.264;2022-11-15T07:55:50;25.4;;;16.9;;
67429;SDS011;54298;52.076;5.264;2022-11-15T07:57:26;21.1;;;16.61;;
67429;SDS011;54298;52.076;5.264;2022-11-15T07:59:02;25.1;;;18.11;;
67429;SDS011;54298;52.076;5.264;2022-11-15T08:02:17;22.5;;;16.4;;
67429;SDS011;54298;52.076;5.264;2022-11-15T08:03:54;21.0;;;15.9;;
67429;SDS011;54298;52.076;5.264;2022-11-15T08:05:30;24.0;;;17.3;;
67429;SDS011;54298;52.076;5.264;2022-11-15T08:08:42;21.0;;;16.3;;
67429;SDS011;54298;52.076;5.264;2022-11-15T08:10:20;25.7;;;15.9;;
67429;SDS011;54298;52.076;5.264;2022-11-15T08:11:56;22.4;;;16.2;;
67429;SDS011;54298;52.076;5.264;2022-11-15T08:13:32;23.4;;;16.4;;
67429;SDS011;54298;52.076;5.264;2022-11-15T08:16:45;19.7;;;14.5;;
67429;SDS011;54298;52.076;5.264;2022-11-15T08:18:21;22.7;;;15.5;;
67429;SDS011;54298;52.076;5.264;2022-11-15T08:19:58;25.9;;;16.3;;
67429;SDS011;54298;52.076;5.264;2022-11-15T08:23:11;25.9;;;17.41;;
67429;SDS011;54298;52.076;5.264;2022-11-15T08:24:48;26.2;;;16.61;;
67429;SDS011;54298;52.076;5.264;2022-11-15T08:26:26;22.5;;;15.1;;
67429;SDS011;54298;52.076;5.264;2022-11-15T08:29:43;22.9;;;16.11;;
67429;SDS011;54298;52.076;5.264;2022-11-15T08:31:20;29.5;;;18.7;;
67429;SDS011;54298;52.076;5.264;2022-11-15T08:32:57;23.6;;;14.9;;
67429;SDS011;54298;52.076;5.264;2022-11-15T08:34:34;22.6;;;15.2;;
67429;SDS011;54298;52.076;5.264;2022-11-15T08:37:52;19.3;;;13.7;;
67429;SDS011;54298;52.076;5.264;2022-11-15T08:39:29;19.3;;;13.7;;
67429;SDS011;54298;52.076;5.264;2022-11-15T08:41:06;22.3;;;14.6;;
67429;SDS011;54298;52.076;5.264;2022-11-15T08:44:21;20.0;;;13.2;;
67429;SDS011;54298;52.076;5.264;2022-11-15T08:45:57;21.4;;;14.5;;
67429;SDS011;54298;52.076;5.264;2022-11-15T08:47:34;25.4;;;15.6;;
67429;SDS011;54298;52.076;5.264;2022-11-15T08:49:11;19.3;;;13.1;;
67429;SDS011;54298;52.076;5.264;2022-11-15T08:52:23;21.0;;;14.1;;
67429;SDS011;54298;52.076;5.264;2022-11-15T08:53:59;21.0;;;13.1;;
67429;SDS011;54298;52.076;5.264;2022-11-15T08:55:35;21.9;;;13.6;;
67429;SDS011;54298;52.076;5.264;2022-11-15T08:58:50;21.9;;;14.0;;
67429;SDS011;54298;52.076;5.264;2022-11-15T09:00:27;21.9;;;14.4;;
67429;SDS011;54298;52.076;5.264;2022-11-15T09:02:04;17.5;;;12.1;;
67429;SDS011;54298;52.076;5.264;2022-11-15T09:05:19;22.0;;;13.5;;
67429;SDS011;54298;52.076;5.264;2022-11-15T09:06:55;20.8;;;13.9;;
67429;SDS011;54298;52.076;5.264;2022-11-15T09:08:31;20.8;;;13.9;;
67429;SDS011;54298;52.076;5.264;2022-11-15T09:10:08;18.8;;;12.6;;
67429;SDS011;54298;52.076;5.264;2022-11-15T09:13:20;67.5;;;45.8;;
67429;SDS011;54298;52.076;5.264;2022-11-15T09:14:58;20.9;;;14.5;;
67429;SDS011;54298;52.076;5.264;2022-11-15T09:16:34;28.3;;;18.3;;
67429;SDS011;54298;52.076;5.264;2022-11-15T09:19:45;20.8;;;13.4;;
67429;SDS011;54298;52.076;5.264;2022-11-15T09:21:21;23.5;;;15.7;;
67429;SDS011;54298;52.076;5.264;2022-11-15T09:22:59;27.8;;;19.61;;
67429;SDS011;54298;52.076;5.264;2022-11-15T09:26:12;20.11;;;13.2;;
67429;SDS011;54298;52.076;5.264;2022-11-15T09:27:49;23.4;;;14.3;;
67429;SDS011;54298;52.076;5.264;2022-11-15T09:29:25;20.8;;;12.9;;
67429;SDS011;54298;52.076;5.264;2022-11-15T09:34:18;20.7;;;13.4;;
67429;SDS011;54298;52.076;5.264;2022-11-15T09:35:54;24.5;;;16.5;;
67429;SDS011;54298;52.076;5.264;2022-11-15T09:37:35;20.6;;;13.5;;
67429;SDS011;54298;52.076;5.264;2022-11-15T09:40:48;20.7;;;13.3;;
67429;SDS011;54298;52.076;5.264;2022-11-15T09:42:47;17.11;;;11.0;;
67429;SDS011;54298;52.076;5.264;2022-11-15T09:44:40;53.7;;;35.21;;
67429;SDS011;54298;52.076;5.264;2022-11-15T09:46:26;22.8;;;16.3;;
67429;SDS011;54298;52.076;5.264;2022-11-15T09:48:25;15.6;;;11.5;;
67429;SDS011;54298;52.076;5.264;2022-11-15T09:50:28;18.3;;;11.1;;
67429;SDS011;54298;52.076;5.264;2022-11-15T09:52:10;27.9;;;18.11;;
67429;SDS011;54298;52.076;5.264;2022-11-15T09:55:34;18.5;;;13.7;;
67429;SDS011;54298;52.076;5.264;2022-11-15T09:57:32;69.91;;;51.4;;
67429;SDS011;54298;52.076;5.264;2022-11-15T09:59:21;15.1;;;9.31;;
67429;SDS011;54298;52.076;5.264;2022-11-15T10:01:38;15.3;;;10.1;;
67429;SDS011;54298;52.076;5.264;2022-11-15T10:03:27;19.11;;;12.2;;
67429;SDS011;54298;52.076;5.264;2022-11-15T10:05:10;16.7;;;10.1;;
67429;SDS011;54298;52.076;5.264;2022-11-15T10:07:00;15.8;;;9.71;;
67429;SDS011;54298;52.076;5.264;2022-11-15T10:08:50;21.8;;;14.0;;
67429;SDS011;54298;52.076;5.264;2022-11-15T10:12:14;17.91;;;11.6;;
67429;SDS011;54298;52.076;5.264;2022-11-15T10:13:53;19.61;;;12.1;;
67429;SDS011;54298;52.076;5.264;2022-11-15T10:15:34;15.6;;;9.1;;
67429;SDS011;54298;52.076;5.264;2022-11-15T10:17:21;21.2;;;14.2;;
67429;SDS011;54298;52.076;5.264;2022-11-15T10:20:10;21.2;;;14.2;;
67429;SDS011;54298;52.076;5.264;2022-11-15T10:21:57;12.2;;;7.9;;
67429;SDS011;54298;52.076;5.264;2022-11-15T10:23:44;30.1;;;19.2;;
67429;SDS011;54298;52.076;5.264;2022-11-15T10:25:21;43.1;;;28.9;;
67429;SDS011;54298;52.076;5.264;2022-11-15T10:28:36;34.71;;;24.0;;
67429;SDS011;54298;52.076;5.264;2022-11-15T10:30:14;14.2;;;8.1;;
67429;SDS011;54298;52.076;5.264;2022-11-15T10:31:53;21.0;;;13.8;;
67429;SDS011;54298;52.076;5.264;2022-11-15T10:35:24;17.91;;;12.5;;
67429;SDS011;54298;52.076;5.264;2022-11-15T10:37:02;11.1;;;6.5;;
67429;SDS011;54298;52.076;5.264;2022-11-15T10:38:49;10.1;;;5.6;;
67429;SDS011;54298;52.076;5.264;2022-11-15T10:40:29;10.7;;;6.5;;
67429;SDS011;54298;52.076;5.264;2022-11-15T10:42:25;14.4;;;8.6;;
67429;SDS011;54298;52.076;5.264;2022-11-15T10:46:16;9.71;;;4.8;;
67429;SDS011;54298;52.076;5.264;2022-11-15T10:48:19;8.6;;;5.3;;
67429;SDS011;54298;52.076;5.264;2022-11-15T10:50:01;10.0;;;5.11;;
67429;SDS011;54298;52.076;5.264;2022-11-15T10:51:43;9.9;;;4.5;;
67429;SDS011;54298;52.076;5.264;2022-11-15T10:53:25;9.71;;;4.91;;
67429;SDS011;54298;52.076;5.264;2022-11-15T10:57:04;8.4;;;4.5;;
67429;SDS011;54298;52.076;5.264;2022-11-15T11:00:29;9.21;;;4.3;;
67429;SDS011;54298;52.076;5.264;2022-11-15T11:02:23;16.5;;;9.71;;
67429;SDS011;54298;52.076;5.264;2022-11-15T11:04:11;9.4;;;4.5;;
67429;SDS011;54298;52.076;5.264;2022-11-15T11:05:47;10.7;;;4.8;;
67429;SDS011;54298;52.076;5.264;2022-11-15T11:07:24;13.4;;;6.4;;
67429;SDS011;54298;52.076;5.264;2022-11-15T11:10:51;9.71;;;4.1;;
67429;SDS011;54298;52.076;5.264;2022-11-15T11:12:30;9.5;;;4.2;;
67429;SDS011;54298;52.076;5.264;2022-11-15T11:14:11;11.4;;;6.5;;
67429;SDS011;54298;52.076;5.264;2022-11-15T11:15:50;12.8;;;7.1;;
67429;SDS011;54298;52.076;5.264;2022-11-15T11:17:51;8.0;;;4.1;;
67429;SDS011;54298;52.076;5.264;2022-11-15T11:21:35;8.81;;;4.2;;
67429;SDS011;54298;52.076;5.264;2022-11-15T11:23:27;8.2;;;3.7;;
67429;SDS011;54298;52.076;5.264;2022-11-15T11:25:19;8.0;;;3.1;;
67429;SDS011;54298;52.076;5.264;2022-11-15T11:27:13;9.31;;;4.5;;
67429;SDS011;54298;52.076;5.264;2022-11-15T11:29:11;6.2;;;2.7;;
67429;SDS011;54298;52.076;5.264;2022-11-15T11:31:06;9.21;;;3.0;;
67429;SDS011;54298;52.076;5.264;2022-11-15T11:32:58;8.31;;;4.91;;
67429;SDS011;54298;52.076;5.264;2022-11-15T11:34:48;7.5;;;3.0;;
67429;SDS011;54298;52.076;5.264;2022-11-15T11:36:37;5.6;;;2.7;;
67429;SDS011;54298;52.076;5.264;2022-11-15T11:42:09;7.4;;;3.6;;
67429;SDS011;54298;52.076;5.264;2022-11-15T11:43:57;10.5;;;3.7;;
67429;SDS011;54298;52.076;5.264;2022-11-15T11:46:00;11.1;;;3.8;;
67429;SDS011;54298;52.076;5.264;2022-11-15T11:47:51;12.5;;;5.11;;
67429;SDS011;54298;52.076;5.264;2022-11-15T11:49:39;10.3;;;3.1;;
67429;SDS011;54298;52.076;5.264;2022-11-15T11:51:22;9.4;;;4.2;;
67429;SDS011;54298;52.076;5.264;2022-11-15T11:54:51;9.1;;;3.5;;
67429;SDS011;54298;52.076;5.264;2022-11-15T11:56:37;60.1;;;33.21;;
67429;SDS011;54298;52.076;5.264;2022-11-15T11:58:19;10.3;;;4.61;;
67429;SDS011;54298;52.076;5.264;2022-11-15T12:00:03;8.4;;;2.4;;
67429;SDS011;54298;52.076;5.264;2022-11-15T12:01:50;8.9;;;2.6;;
67429;SDS011;54298;52.076;5.264;2022-11-15T12:05:16;11.4;;;2.6;;
67429;SDS011;54298;52.076;5.264;2022-11-15T12:07:07;9.81;;;3.4;;
67429;SDS011;54298;52.076;5.264;2022-11-15T12:08:52;6.9;;;2.31;;
67429;SDS011;54298;52.076;5.264;2022-11-15T12:10:33;8.81;;;2.7;;
67429;SDS011;54298;52.076;5.264;2022-11-15T12:12:12;8.71;;;2.6;;
67429;SDS011;54298;52.076;5.264;2022-11-15T12:15:37;10.1;;;2.31;;
67429;SDS011;54298;52.076;5.264;2022-11-15T12:17:19;8.9;;;2.5;;
67429;SDS011;54298;52.076;5.264;2022-11-15T12:19:00;8.81;;;2.21;;
67429;SDS011;54298;52.076;5.264;2022-11-15T12:20:39;9.71;;;2.1;;
67429;SDS011;54298;52.076;5.264;2022-11-15T12:22:31;9.9;;;2.6;;
67429;SDS011;54298;52.076;5.264;2022-11-15T12:26:04;9.9;;;2.6;;
67429;SDS011;54298;52.076;5.264;2022-11-15T12:27:46;9.81;;;2.7;;
67429;SDS011;54298;52.076;5.264;2022-11-15T12:29:29;9.1;;;2.9;;
67429;SDS011;54298;52.076;5.264;2022-11-15T12:31:18;8.6;;;2.4;;
67429;SDS011;54298;52.076;5.264;2022-11-15T12:33:01;8.31;;;2.31;;
67429;SDS011;54298;52.076;5.264;2022-11-15T12:36:30;7.7;;;2.1;;
67429;SDS011;54298;52.076;5.264;2022-11-15T12:38:49;10.8;;;2.6;;
67429;SDS011;54298;52.076;5.264;2022-11-15T12:40:33;7.5;;;3.0;;
67429;SDS011;54298;52.076;5.264;2022-11-15T12:42:35;12.3;;;2.31;;
67429;SDS011;54298;52.076;5.264;2022-11-15T12:47:21;18.11;;;8.9;;
67429;SDS011;54298;52.076;5.264;2022-11-15T12:49:00;8.71;;;2.4;;
67429;SDS011;54298;52.076;5.264;2022-11-15T12:50:59;9.9;;;3.2;;
67429;SDS011;54298;52.076;5.264;2022-11-15T12:52:35;9.81;;;2.31;;
67429;SDS011;54298;52.076;5.264;2022-11-15T12:55:30;11.4;;;3.4;;
67429;SDS011;54298;52.076;5.264;2022-11-15T12:57:40;12.0;;;4.7;;